DEALER1 ETNL-ETNL
Flight info
| Callsign | DEALER1 |
|---|---|
| Flight time | 0h 29m |
| Altitude | 7000 |
| Route | ETNL ROSOK ETNL |
| Aircraft | EUFI/M-SDGHITUY/LV1D1 |
Departure
| Time | 2026-05-04 15:43 |
|---|---|
| Airport | Rostock-Laage Airport (ETNL) |
Arrival
| Time | 2026-05-04 16:13 |
|---|---|
| Airport | Rostock-Laage Airport (ETNL) |
| Time | Latitude | Longitude | Altitude | Speed | Heading |
|---|---|---|---|---|---|
| 2026-05-04 15:37 | 53.92070 | 12.29882 | 146 ft | 0 kts | 358° |
| 2026-05-04 15:38 | 53.92071 | 12.29861 | 146 ft | 7 kts | 261° |
| 2026-05-04 15:38 | 53.92006 | 12.29792 | 146 ft | 16 kts | 158° |
| 2026-05-04 15:38 | 53.91993 | 12.29820 | 146 ft | 0 kts | 120° |
| 2026-05-04 15:39 | 53.91993 | 12.29821 | 146 ft | 0 kts | 120° |
| 2026-05-04 15:41 | 53.91991 | 12.29826 | 146 ft | 3 kts | 124° |
| 2026-05-04 15:41 | 53.91945 | 12.29851 | 146 ft | 11 kts | 184° |
| 2026-05-04 15:41 | 53.91863 | 12.29794 | 146 ft | 14 kts | 175° |
| 2026-05-04 15:42 | 53.91753 | 12.29803 | 146 ft | 3 kts | 176° |
| 2026-05-04 15:42 | 53.91751 | 12.29803 | 146 ft | 0 kts | 176° |
| 2026-05-04 15:42 | 53.91733 | 12.29803 | 147 ft | 14 kts | 177° |
| 2026-05-04 15:42 | 53.91669 | 12.29666 | 147 ft | 21 kts | 277° |
| 2026-05-04 15:43 | 53.91687 | 12.29491 | 148 ft | 73 kts | 282° |
| 2026-05-04 15:43 | 53.91842 | 12.27730 | 591 ft | 185 kts | 280° |
| 2026-05-04 15:43 | 53.92136 | 12.24786 | 1442 ft | 316 kts | 279° |
| 2026-05-04 15:43 | 53.92559 | 12.20562 | 1883 ft | 388 kts | 280° |
| 2026-05-04 15:44 | 53.93009 | 12.16177 | 2242 ft | 361 kts | 280° |
| 2026-05-04 15:44 | 53.93426 | 12.12182 | 2911 ft | 327 kts | 279° |
| 2026-05-04 15:44 | 53.93892 | 12.08280 | 4502 ft | 351 kts | 287° |
| 2026-05-04 15:44 | 53.94705 | 12.04230 | 6192 ft | 372 kts | 287° |
| 2026-05-04 15:45 | 53.95545 | 11.99915 | 7290 ft | 389 kts | 287° |
| 2026-05-04 15:45 | 53.96345 | 11.95770 | 7458 ft | 368 kts | 287° |
| 2026-05-04 15:45 | 53.97852 | 11.92491 | 7303 ft | 359 kts | 341° |
| 2026-05-04 15:45 | 54.00410 | 11.92825 | 6308 ft | 401 kts | 21° |
| 2026-05-04 15:46 | 54.02801 | 11.95599 | 5720 ft | 432 kts | 40° |
| 2026-05-04 15:46 | 54.04935 | 11.98909 | 5761 ft | 388 kts | 40° |
| 2026-05-04 15:46 | 54.06758 | 12.01760 | 6107 ft | 351 kts | 38° |
| 2026-05-04 15:46 | 54.08688 | 12.04885 | 6475 ft | 412 kts | 46° |
| 2026-05-04 15:47 | 54.10665 | 12.08719 | 6859 ft | 430 kts | 47° |
| 2026-05-04 15:47 | 54.12495 | 12.12378 | 6994 ft | 397 kts | 47° |
| 2026-05-04 15:47 | 54.14259 | 12.15920 | 7032 ft | 394 kts | 47° |
| 2026-05-04 15:47 | 54.16069 | 12.19567 | 6975 ft | 408 kts | 47° |
| 2026-05-04 15:48 | 54.17910 | 12.23268 | 6825 ft | 409 kts | 47° |
| 2026-05-04 15:48 | 54.19735 | 12.26945 | 6811 ft | 405 kts | 47° |
| 2026-05-04 15:48 | 54.23406 | 12.34363 | 6784 ft | 408 kts | 47° |
| 2026-05-04 15:49 | 54.25446 | 12.37590 | 6873 ft | 396 kts | 26° |
| 2026-05-04 15:49 | 54.28060 | 12.38992 | 7049 ft | 395 kts | 359° |
| 2026-05-04 15:49 | 54.30623 | 12.38146 | 7595 ft | 365 kts | 324° |
| 2026-05-04 15:49 | 54.32670 | 12.35421 | 7775 ft | 383 kts | 317° |
| 2026-05-04 15:50 | 54.34753 | 12.32420 | 7825 ft | 401 kts | 316° |
| 2026-05-04 15:50 | 54.36039 | 12.30141 | 8022 ft | 402 kts | 300° |
| 2026-05-04 15:50 | 54.35052 | 12.26035 | 8238 ft | 304 kts | 160° |
| 2026-05-04 15:50 | 54.34206 | 12.29018 | 8099 ft | 327 kts | 71° |
| 2026-05-04 15:51 | 54.35853 | 12.31723 | 8169 ft | 395 kts | 30° |
| 2026-05-04 15:51 | 54.37758 | 12.32806 | 8105 ft | 473 kts | 345° |
| 2026-05-04 15:51 | 54.39603 | 12.28904 | 8162 ft | 444 kts | 260° |
| 2026-05-04 15:51 | 54.37332 | 12.27172 | 8134 ft | 422 kts | 128° |
| 2026-05-04 15:52 | 54.37658 | 12.31366 | 8234 ft | 407 kts | 30° |
| 2026-05-04 15:52 | 54.40358 | 12.30952 | 8209 ft | 457 kts | 356° |
| 2026-05-04 15:52 | 54.40963 | 12.34522 | 7255 ft | 436 kts | 174° |
| 2026-05-04 15:52 | 54.40167 | 12.31687 | 6387 ft | 358 kts | 321° |
| 2026-05-04 15:53 | 54.42732 | 12.31058 | 7218 ft | 411 kts | 353° |
| 2026-05-04 15:53 | 54.45398 | 12.30854 | 8487 ft | 352 kts | 352° |
| 2026-05-04 15:53 | 54.47064 | 12.29674 | 8462 ft | 194 kts | 273° |
| 2026-05-04 15:53 | 54.46668 | 12.28073 | 7943 ft | 148 kts | 195° |
| 2026-05-04 15:54 | 54.45650 | 12.27776 | 7558 ft | 148 kts | 193° |
| 2026-05-04 15:54 | 54.44717 | 12.27645 | 7570 ft | 131 kts | 183° |
| 2026-05-04 15:54 | 54.43897 | 12.28520 | 7457 ft | 164 kts | 101° |
| 2026-05-04 15:54 | 54.43934 | 12.30519 | 7375 ft | 174 kts | 112° |
| 2026-05-04 15:55 | 54.43160 | 12.31659 | 6652 ft | 158 kts | 219° |
| 2026-05-04 15:55 | 54.42892 | 12.30368 | 6349 ft | 139 kts | 335° |
| 2026-05-04 15:55 | 54.43860 | 12.30777 | 6165 ft | 166 kts | 37° |
| 2026-05-04 15:55 | 54.44574 | 12.32080 | 5797 ft | 171 kts | 39° |
| 2026-05-04 15:56 | 54.45368 | 12.33437 | 5409 ft | 146 kts | 35° |
| 2026-05-04 15:56 | 54.46113 | 12.34830 | 5419 ft | 193 kts | 55° |
| 2026-05-04 15:56 | 54.45821 | 12.36662 | 4535 ft | 178 kts | 181° |
| 2026-05-04 15:56 | 54.44546 | 12.36649 | 4100 ft | 203 kts | 187° |
| 2026-05-04 15:57 | 54.42775 | 12.36490 | 4144 ft | 309 kts | 187° |
| 2026-05-04 15:57 | 54.40308 | 12.36135 | 4226 ft | 378 kts | 188° |
| 2026-05-04 15:57 | 54.37609 | 12.35703 | 5051 ft | 411 kts | 188° |
| 2026-05-04 15:57 | 54.34565 | 12.35195 | 6195 ft | 467 kts | 188° |
| 2026-05-04 15:58 | 54.31149 | 12.34573 | 7035 ft | 517 kts | 189° |
| 2026-05-04 15:58 | 54.27698 | 12.33936 | 7609 ft | 465 kts | 188° |
| 2026-05-04 15:58 | 54.24677 | 12.33434 | 7684 ft | 408 kts | 185° |
| 2026-05-04 15:58 | 54.21996 | 12.34255 | 7223 ft | 385 kts | 158° |
| 2026-05-04 15:59 | 54.19818 | 12.37087 | 7063 ft | 401 kts | 132° |
| 2026-05-04 15:59 | 54.18452 | 12.41249 | 7027 ft | 413 kts | 116° |
| 2026-05-04 15:59 | 54.17209 | 12.45724 | 6721 ft | 411 kts | 116° |
| 2026-05-04 15:59 | 54.16081 | 12.50118 | 6758 ft | 399 kts | 116° |
| 2026-05-04 16:00 | 54.14586 | 12.54090 | 6571 ft | 406 kts | 128° |
| 2026-05-04 16:00 | 54.12561 | 12.57397 | 6680 ft | 401 kts | 155° |
| 2026-05-04 16:00 | 54.09985 | 12.58937 | 6766 ft | 389 kts | 167° |
| 2026-05-04 16:00 | 54.07393 | 12.60210 | 6823 ft | 387 kts | 167° |
| 2026-05-04 16:01 | 54.04805 | 12.61465 | 6824 ft | 388 kts | 169° |
| 2026-05-04 16:01 | 54.02135 | 12.62174 | 6567 ft | 392 kts | 179° |
| 2026-05-04 16:01 | 53.99419 | 12.62083 | 6286 ft | 382 kts | 186° |
| 2026-05-04 16:01 | 53.96830 | 12.61703 | 6069 ft | 365 kts | 193° |
| 2026-05-04 16:02 | 53.94415 | 12.60887 | 5077 ft | 339 kts | 193° |
| 2026-05-04 16:02 | 53.92213 | 12.60137 | 4697 ft | 316 kts | 193° |
| 2026-05-04 16:02 | 53.88021 | 12.58578 | 3887 ft | 302 kts | 198° |
| 2026-05-04 16:03 | 53.86236 | 12.57828 | 3898 ft | 224 kts | 154° |
| 2026-05-04 16:03 | 53.85632 | 12.60078 | 3399 ft | 257 kts | 84° |
| 2026-05-04 16:03 | 53.86350 | 12.63312 | 3314 ft | 338 kts | 49° |
| 2026-05-04 16:03 | 53.88467 | 12.65783 | 3856 ft | 403 kts | 21° |
| 2026-05-04 16:04 | 53.91093 | 12.68333 | 3794 ft | 460 kts | 34° |
| 2026-05-04 16:04 | 53.96310 | 12.73999 | 3737 ft | 387 kts | 18° |
| 2026-05-04 16:04 | 53.98690 | 12.74469 | 4484 ft | 312 kts | 346° |
| 2026-05-04 16:05 | 54.00126 | 12.72769 | 4525 ft | 234 kts | 277° |
| 2026-05-04 16:05 | 53.99893 | 12.69818 | 3423 ft | 279 kts | 255° |
| 2026-05-04 16:05 | 53.98516 | 12.63025 | 1556 ft | 290 kts | 248° |
| 2026-05-04 16:06 | 53.97656 | 12.60111 | 1323 ft | 265 kts | 235° |
| 2026-05-04 16:06 | 53.94280 | 12.52293 | 1505 ft | 340 kts | 236° |
| 2026-05-04 16:07 | 53.92518 | 12.48079 | 1754 ft | 325 kts | 236° |
| 2026-05-04 16:07 | 53.91050 | 12.37982 | 1511 ft | 304 kts | 277° |
| 2026-05-04 16:08 | 53.91340 | 12.34427 | 1452 ft | 312 kts | 278° |
| 2026-05-04 16:08 | 53.90060 | 12.30089 | 984 ft | 181 kts | 120° |
| 2026-05-04 16:09 | 53.90955 | 12.32386 | 678 ft | 155 kts | 328° |
| 2026-05-04 16:09 | 53.91692 | 12.29397 | 150 ft | 136 kts | 278° |
| 2026-05-04 16:10 | 53.91091 | 12.25905 | 1108 ft | 163 kts | 154° |
| 2026-05-04 16:11 | 53.89418 | 12.31917 | 1748 ft | 189 kts | 70° |
| 2026-05-04 16:11 | 53.90148 | 12.33050 | 1097 ft | 148 kts | 359° |
| 2026-05-04 16:12 | 53.91630 | 12.30078 | 208 ft | 128 kts | 278° |
| 2026-05-04 16:12 | 53.91893 | 12.27096 | 145 ft | 54 kts | 280° |
| 2026-05-04 16:13 | 53.91978 | 12.26104 | 144 ft | 18 kts | 301° |
| 2026-05-04 16:13 | 53.92146 | 12.26210 | 145 ft | 13 kts | 27° |
| 2026-05-04 16:14 | 53.92222 | 12.26284 | 145 ft | 12 kts | 37° |
| 2026-05-04 16:14 | 53.92219 | 12.26550 | 145 ft | 11 kts | 95° |
| 2026-05-04 16:15 | 53.92178 | 12.27078 | 145 ft | 18 kts | 96° |
| 2026-05-04 16:16 | 53.92153 | 12.27461 | 145 ft | 15 kts | 94° |
| 2026-05-04 16:16 | 53.92097 | 12.28152 | 145 ft | 21 kts | 94° |
| 2026-05-04 16:17 | 53.92064 | 12.28614 | 146 ft | 19 kts | 101° |
| 2026-05-04 16:18 | 53.92030 | 12.28962 | 146 ft | 16 kts | 99° |
| 2026-05-04 16:18 | 53.92012 | 12.29164 | 146 ft | 17 kts | 100° |
| 2026-05-04 16:19 | 53.91923 | 12.29599 | 146 ft | 18 kts | 96° |
| 2026-05-04 16:19 | 53.92030 | 12.29786 | 146 ft | 12 kts | 360° |
| 2026-05-04 16:20 | 53.92067 | 12.29877 | 146 ft | 0 kts | 2° |